createdAt,value
2018-11-10T00:01:30.845Z,92.20
2018-11-10T00:04:00.812Z,92.20
2018-11-10T00:06:30.652Z,92.20
2018-11-10T00:09:00.412Z,92.30
2018-11-10T00:11:30.316Z,92.20
2018-11-10T00:14:00.206Z,92.20
2018-11-10T00:16:30.010Z,92.20
2018-11-10T00:18:59.919Z,92.20
2018-11-10T00:21:29.997Z,92.20
2018-11-10T00:23:59.873Z,92.30
2018-11-10T00:26:29.862Z,92.20
2018-11-10T00:28:59.637Z,92.20
2018-11-10T00:31:29.454Z,92.20
2018-11-10T00:33:59.241Z,92.20
2018-11-10T00:36:29.158Z,92.20
2018-11-10T00:38:59.053Z,92.20
2018-11-10T00:41:29.889Z,92.10
2018-11-10T00:43:59.703Z,92.10
2018-11-10T00:46:29.641Z,92.10
2018-11-10T00:48:59.603Z,92.10
2018-11-10T00:51:29.529Z,92.10
2018-11-10T00:53:59.477Z,92.00
2018-11-10T00:56:29.527Z,92.10
2018-11-10T00:58:59.761Z,92.00
2018-11-10T01:01:29.688Z,92.00
2018-11-10T01:03:59.527Z,91.90
2018-11-10T01:06:29.396Z,92.00
2018-11-10T01:08:59.233Z,92.00
2018-11-10T01:11:29.027Z,92.00
2018-11-10T01:13:58.949Z,92.00
2018-11-10T01:16:28.810Z,92.00
2018-11-10T01:18:58.688Z,92.00
2018-11-10T01:21:28.595Z,92.00
2018-11-10T01:23:58.489Z,91.90
2018-11-10T01:26:28.601Z,91.90
2018-11-10T01:28:58.500Z,91.90
2018-11-10T01:31:28.609Z,91.90
2018-11-10T01:33:58.526Z,92.00
2018-11-10T01:36:28.397Z,91.90
2018-11-10T01:38:58.320Z,91.90
2018-11-10T01:41:28.230Z,91.80
2018-11-10T01:43:58.214Z,91.80
2018-11-10T01:46:28.193Z,91.80
2018-11-10T01:48:58.180Z,91.70
2018-11-10T01:51:28.327Z,91.60
2018-11-10T01:53:58.204Z,91.60
2018-11-10T01:56:28.318Z,91.60
2018-11-10T01:59:21.590Z,91.50
2018-11-10T02:01:51.547Z,91.60
2018-11-10T02:04:21.427Z,91.50
2018-11-10T02:06:51.344Z,91.50
2018-11-10T02:09:23.767Z,91.50
2018-11-10T02:11:53.918Z,91.50
2018-11-10T02:14:23.880Z,91.50
2018-11-10T02:16:53.738Z,91.40
2018-11-10T02:19:23.670Z,91.50
2018-11-10T02:21:53.672Z,91.50
2018-11-10T02:24:26.026Z,91.50
2018-11-10T02:26:55.928Z,91.50
2018-11-10T02:29:25.947Z,91.50
2018-11-10T02:31:55.779Z,91.50
2018-11-10T02:34:25.610Z,91.50
2018-11-10T02:36:55.454Z,91.50
2018-11-10T02:39:25.308Z,91.50
2018-11-10T02:41:55.179Z,91.50
2018-11-10T02:44:24.948Z,91.40
2018-11-10T02:46:54.983Z,91.40
2018-11-10T02:49:24.750Z,91.40
2018-11-10T02:51:54.774Z,91.40
2018-11-10T02:54:24.585Z,91.30
2018-11-10T02:56:54.625Z,91.30
2018-11-10T02:59:24.562Z,91.20
2018-11-10T03:01:54.477Z,91.20
2018-11-10T03:04:24.389Z,91.10
2018-11-10T03:06:54.210Z,91.20
2018-11-10T03:09:24.030Z,91.10
2018-11-10T03:11:53.881Z,91.00
2018-11-10T03:14:23.827Z,91.00
2018-11-10T03:16:53.711Z,91.00
2018-11-10T03:19:23.573Z,90.90
2018-11-10T03:21:53.430Z,90.80
2018-11-10T03:24:23.225Z,90.80
2018-11-10T03:26:53.075Z,90.80
2018-11-10T03:29:22.915Z,90.70
2018-11-10T03:31:52.708Z,90.60
2018-11-10T03:34:22.566Z,90.40
2018-11-10T03:36:52.466Z,90.30
2018-11-10T03:39:22.429Z,90.10
2018-11-10T03:41:52.242Z,90.10
2018-11-10T03:44:22.229Z,90.00
2018-11-10T03:46:52.142Z,89.80
2018-11-10T03:49:21.922Z,89.50
2018-11-10T03:51:51.755Z,89.30
2018-11-10T03:54:21.603Z,89.30
2018-11-10T03:56:51.326Z,88.80
2018-11-10T03:59:21.237Z,88.70
2018-11-10T04:01:51.134Z,88.50
2018-11-10T04:04:21.065Z,88.30
2018-11-10T04:06:50.878Z,88.00
2018-11-10T04:09:20.814Z,87.70
2018-11-10T04:11:50.720Z,87.90
2018-11-10T04:14:20.794Z,87.50
2018-11-10T04:16:50.643Z,88.30
2018-11-10T04:19:20.434Z,87.50
2018-11-10T04:21:50.360Z,87.00
2018-11-10T04:24:20.290Z,87.20
2018-11-10T04:26:50.214Z,87.30
2018-11-10T04:29:20.118Z,87.10
2018-11-10T04:31:49.958Z,87.10
2018-11-10T04:34:19.970Z,87.10
2018-11-10T04:36:49.929Z,87.20
2018-11-10T04:39:19.818Z,87.20
2018-11-10T04:41:49.597Z,87.10
2018-11-10T04:44:19.407Z,87.20
2018-11-10T04:46:49.306Z,87.10
2018-11-10T04:49:19.161Z,87.10
2018-11-10T04:51:49.066Z,87.50
2018-11-10T04:54:18.912Z,87.80
2018-11-10T04:56:48.773Z,88.00
2018-11-10T04:59:18.665Z,89.10
2018-11-10T05:01:48.615Z,88.50
2018-11-10T05:04:18.551Z,88.80
2018-11-10T05:06:48.379Z,89.20
2018-11-10T05:09:18.191Z,89.40
2018-11-10T05:11:48.062Z,89.60
2018-11-10T05:14:17.855Z,89.80
2018-11-10T05:16:47.685Z,90.00
2018-11-10T05:19:17.569Z,90.10
2018-11-10T05:21:47.849Z,90.10
2018-11-10T05:24:17.791Z,90.20
2018-11-10T05:26:47.649Z,90.30
2018-11-10T05:29:17.519Z,90.40
2018-11-10T05:31:47.403Z,90.50
2018-11-10T05:34:17.247Z,90.60
2018-11-10T05:36:47.095Z,90.60
2018-11-10T05:39:16.863Z,90.70
2018-11-10T05:41:46.802Z,90.70
2018-11-10T05:44:16.693Z,90.80
2018-11-10T05:46:46.591Z,90.90
2018-11-10T05:49:16.633Z,90.90
2018-11-10T05:51:46.529Z,90.90
2018-11-10T05:54:16.423Z,90.90
2018-11-10T05:56:46.447Z,91.00
2018-11-10T05:59:16.272Z,91.00
2018-11-10T06:01:46.324Z,91.10
2018-11-10T06:04:16.368Z,91.10
2018-11-10T06:06:46.246Z,91.10
2018-11-10T06:09:16.231Z,91.10
2018-11-10T06:11:46.106Z,91.20
2018-11-10T06:14:16.102Z,91.30
2018-11-10T06:16:45.836Z,91.30
2018-11-10T06:19:15.630Z,91.50
2018-11-10T06:21:45.538Z,91.50
2018-11-10T06:24:15.686Z,91.60
2018-11-10T06:26:45.570Z,91.70
2018-11-10T06:29:15.780Z,91.70
2018-11-10T06:31:46.488Z,91.80
2018-11-10T06:34:16.612Z,91.80
2018-11-10T06:36:46.598Z,91.90
2018-11-10T06:39:17.010Z,91.90
2018-11-10T06:41:46.930Z,92.00
2018-11-10T06:44:17.028Z,92.00
2018-11-10T06:46:47.045Z,92.10
2018-11-10T06:49:17.079Z,92.10
2018-11-10T06:51:46.938Z,92.20
2018-11-10T06:54:17.036Z,92.20
2018-11-10T06:56:47.082Z,92.20
2018-11-10T06:59:17.070Z,92.10
2018-11-10T07:01:47.758Z,92.10
2018-11-10T07:04:18.066Z,92.10
2018-11-10T07:06:48.030Z,92.10
2018-11-10T07:09:18.172Z,92.10
2018-11-10T07:11:49.523Z,92.10
2018-11-10T07:14:19.846Z,92.20
2018-11-10T07:16:49.825Z,92.10
2018-11-10T07:19:19.704Z,92.10
2018-11-10T07:21:49.574Z,92.10
2018-11-10T07:24:19.558Z,92.20
2018-11-10T07:26:49.838Z,92.20
2018-11-10T07:29:19.778Z,92.20
2018-11-10T07:31:50.357Z,92.30
2018-11-10T07:34:20.336Z,92.40
2018-11-10T07:36:50.270Z,92.40
2018-11-10T07:39:20.230Z,92.40
2018-11-10T07:41:53.352Z,92.40
2018-11-10T07:44:23.324Z,92.40
2018-11-10T07:46:53.466Z,92.40
2018-11-10T07:49:23.510Z,92.40
2018-11-10T07:51:53.441Z,92.40
2018-11-10T07:54:23.412Z,92.50
2018-11-10T07:56:53.314Z,92.40
2018-11-10T07:59:23.422Z,92.40
2018-11-10T08:01:53.422Z,92.40
2018-11-10T08:04:23.469Z,92.40
2018-11-10T08:06:55.722Z,92.40
2018-11-10T08:09:25.795Z,92.30
2018-11-10T08:11:55.828Z,92.30
2018-11-10T08:14:25.629Z,92.30
2018-11-10T08:16:55.643Z,92.30
2018-11-10T08:19:25.669Z,92.30
2018-11-10T08:21:55.457Z,92.30
2018-11-10T08:24:25.482Z,92.20
2018-11-10T08:26:55.510Z,92.10
2018-11-10T08:29:25.443Z,92.10
2018-11-10T08:31:55.422Z,92.00
2018-11-10T08:34:25.422Z,92.00
2018-11-10T08:36:55.638Z,92.00
2018-11-10T08:39:25.676Z,91.80
2018-11-10T08:41:55.660Z,91.80
2018-11-10T08:44:25.542Z,91.70
2018-11-10T08:46:55.422Z,91.70
2018-11-10T08:49:25.446Z,91.60
2018-11-10T08:51:55.268Z,91.50
2018-11-10T08:54:25.290Z,91.50
2018-11-10T08:56:55.426Z,91.40
2018-11-10T08:59:25.520Z,91.40
2018-11-10T09:01:55.534Z,91.40
2018-11-10T09:04:25.644Z,91.20
2018-11-10T09:06:55.632Z,91.00
2018-11-10T09:09:25.647Z,91.00
2018-11-10T09:11:55.628Z,91.00
2018-11-10T09:14:25.688Z,90.80
2018-11-10T09:16:55.512Z,90.90
2018-11-10T09:19:25.445Z,90.60
2018-11-10T09:22:00.299Z,90.70
2018-11-10T09:24:30.333Z,90.50
2018-11-10T09:27:00.275Z,90.60
2018-11-10T09:29:30.182Z,90.40
2018-11-10T09:32:00.319Z,90.40
2018-11-10T09:34:30.207Z,90.30
2018-11-10T09:37:00.261Z,90.30
2018-11-10T09:39:30.193Z,90.30
2018-11-10T09:42:00.127Z,90.30
2018-11-10T09:44:30.004Z,90.30
2018-11-10T09:46:59.935Z,90.30
2018-11-10T09:49:29.893Z,90.30
2018-11-10T09:51:59.836Z,90.30
2018-11-10T09:54:30.036Z,90.20
2018-11-10T09:57:00.035Z,90.20
2018-11-10T09:59:30.109Z,90.20
2018-11-10T10:02:00.460Z,90.00
2018-11-10T10:04:30.047Z,90.00
2018-11-10T10:06:59.934Z,90.10
2018-11-10T10:09:29.846Z,90.00
2018-11-10T10:11:59.782Z,89.80
2018-11-10T10:14:29.758Z,89.80
2018-11-10T10:16:59.789Z,89.70
2018-11-10T10:19:29.679Z,89.80
2018-11-10T10:21:59.696Z,89.80
2018-11-10T10:24:29.622Z,89.70
2018-11-10T10:26:59.396Z,89.80
2018-11-10T10:29:29.341Z,89.80
2018-11-10T10:31:59.267Z,89.80
2018-11-10T10:34:29.392Z,90.00
2018-11-10T10:36:59.219Z,89.80
2018-11-10T10:39:29.080Z,89.90
2018-11-10T10:41:58.952Z,89.90
2018-11-10T10:44:28.913Z,90.00
2018-11-10T10:46:58.923Z,89.90
2018-11-10T10:49:28.930Z,90.00
2018-11-10T10:51:58.851Z,89.90
2018-11-10T10:54:28.675Z,90.00
2018-11-10T10:56:58.608Z,90.00
2018-11-10T10:59:28.603Z,90.00
2018-11-10T11:02:03.626Z,90.00
2018-11-10T11:05:38.209Z,90.00
2018-11-10T11:08:08.216Z,89.80
2018-11-10T11:10:38.125Z,90.30
2018-11-10T11:13:08.105Z,90.00
2018-11-10T11:15:38.053Z,89.90
2018-11-10T11:18:07.901Z,90.00
2018-11-10T11:20:37.869Z,90.10
2018-11-10T11:23:08.326Z,90.00
2018-11-10T11:25:38.408Z,90.10
2018-11-10T11:28:08.222Z,90.10
2018-11-10T11:30:38.271Z,90.00
2018-11-10T11:33:08.156Z,90.00
2018-11-10T11:35:38.057Z,90.10
2018-11-10T11:38:08.236Z,90.10
2018-11-10T11:40:38.409Z,89.60
2018-11-10T11:43:08.329Z,90.20
2018-11-10T11:45:38.407Z,90.30
2018-11-10T11:48:08.391Z,90.30
2018-11-10T11:50:38.437Z,90.30
2018-11-10T11:53:08.679Z,90.40
2018-11-10T11:55:38.599Z,90.50
2018-11-10T11:58:08.541Z,90.70
2018-11-10T12:00:38.392Z,90.80
2018-11-10T12:03:08.193Z,91.00
2018-11-10T12:05:38.078Z,91.00
2018-11-10T12:08:07.940Z,91.20
2018-11-10T12:10:37.886Z,91.30
2018-11-10T12:13:07.654Z,91.40
2018-11-10T12:15:37.754Z,91.40
2018-11-10T12:18:07.629Z,91.60
2018-11-10T12:20:37.544Z,91.70
2018-11-10T12:23:07.397Z,91.80
2018-11-10T12:25:37.278Z,91.90
2018-11-10T12:28:07.336Z,92.40
2018-11-10T12:30:37.178Z,92.10
2018-11-10T12:33:07.275Z,92.60
2018-11-10T12:35:37.566Z,92.40
2018-11-10T12:38:07.528Z,92.20
2018-11-10T12:43:21.284Z,92.60
2018-11-10T12:45:51.364Z,92.70
2018-11-10T12:48:21.209Z,92.80
2018-11-10T12:50:51.389Z,92.90
2018-11-10T12:53:21.306Z,92.90
2018-11-10T12:55:53.012Z,92.90
2018-11-10T12:58:24.016Z,93.00
2018-11-10T13:00:53.906Z,92.90
2018-11-10T13:03:24.310Z,93.00
2018-11-10T13:05:54.195Z,93.00
2018-11-10T13:08:24.879Z,93.10
2018-11-10T13:10:54.829Z,93.20
2018-11-10T13:13:24.933Z,93.20
2018-11-10T13:15:54.812Z,93.20
2018-11-10T13:18:24.700Z,93.20
2018-11-10T13:20:54.532Z,93.30
2018-11-10T13:23:24.494Z,93.40
2018-11-10T13:25:54.348Z,93.30
2018-11-10T13:28:24.287Z,93.30
2018-11-10T13:30:54.200Z,93.30
2018-11-10T13:33:24.108Z,93.30
2018-11-10T13:35:53.982Z,93.40
2018-11-10T13:38:23.964Z,93.40
2018-11-10T13:40:53.882Z,93.50
2018-11-10T13:43:23.852Z,93.50
2018-11-10T13:45:53.706Z,93.50
2018-11-10T13:48:23.633Z,93.50
2018-11-10T13:50:53.565Z,93.50
2018-11-10T13:53:23.481Z,93.60
2018-11-10T13:55:53.291Z,93.60
2018-11-10T13:58:23.317Z,93.60
2018-11-10T14:00:53.251Z,93.70
2018-11-10T14:03:23.190Z,93.80
2018-11-10T14:05:53.102Z,93.80
2018-11-10T14:08:22.966Z,93.80
2018-11-10T14:10:52.845Z,93.90
2018-11-10T14:13:22.786Z,93.90
2018-11-10T14:15:52.681Z,94.00
2018-11-10T14:18:22.554Z,94.20
2018-11-10T14:20:52.680Z,94.20
2018-11-10T14:23:22.776Z,94.30
2018-11-10T14:25:52.857Z,94.40
2018-11-10T14:28:22.985Z,94.30
2018-11-10T14:30:53.211Z,94.40
2018-11-10T14:33:23.175Z,94.40
2018-11-10T14:35:53.186Z,94.50
2018-11-10T14:38:23.036Z,94.40
2018-11-10T14:40:52.922Z,94.50
2018-11-10T14:43:22.744Z,94.80
2018-11-10T14:45:52.915Z,94.50
2018-11-10T14:48:22.857Z,94.50
2018-11-10T14:50:52.899Z,94.60
2018-11-10T14:53:22.897Z,94.50
2018-11-10T14:55:52.886Z,94.50
2018-11-10T14:58:22.881Z,94.60
2018-11-10T15:00:52.792Z,94.70
2018-11-10T15:03:22.696Z,94.70
2018-11-10T15:05:52.807Z,94.60
2018-11-10T15:08:22.689Z,94.60
2018-11-10T15:10:52.649Z,94.80
2018-11-10T15:13:22.630Z,94.80
2018-11-10T15:15:52.706Z,95.00
2018-11-10T15:18:22.684Z,95.00
2018-11-10T15:20:52.670Z,95.10
2018-11-10T15:23:22.721Z,95.10
2018-11-10T15:25:52.795Z,95.10
2018-11-10T15:28:23.574Z,95.20
2018-11-10T15:30:54.799Z,95.20
2018-11-10T15:33:25.130Z,95.20
2018-11-10T15:35:55.358Z,95.20
2018-11-10T15:38:25.099Z,95.20
2018-11-10T15:40:55.087Z,95.30
2018-11-10T15:43:25.059Z,95.30
2018-11-10T15:45:55.153Z,95.30
2018-11-10T15:48:25.153Z,95.30
2018-11-10T15:50:55.198Z,95.30
2018-11-10T15:53:25.212Z,95.20
2018-11-10T15:55:55.201Z,95.20
2018-11-10T15:58:25.169Z,95.20
2018-11-10T16:00:55.725Z,95.30
2018-11-10T16:03:25.606Z,95.30
2018-11-10T16:05:55.598Z,95.20
2018-11-10T16:08:25.430Z,95.20
2018-11-10T16:10:55.358Z,95.20
2018-11-10T16:13:25.174Z,95.10
2018-11-10T16:15:55.111Z,95.10
2018-11-10T16:18:24.967Z,95.10
2018-11-10T16:20:54.919Z,95.00
2018-11-10T16:23:24.766Z,95.00
2018-11-10T16:25:54.734Z,95.00
2018-11-10T16:28:25.018Z,94.90
2018-11-10T16:30:54.880Z,94.80
2018-11-10T16:33:24.803Z,94.80
2018-11-10T16:35:55.494Z,94.70
2018-11-10T16:38:26.143Z,94.70
2018-11-10T16:40:56.146Z,95.00
2018-11-10T16:43:26.488Z,94.70
2018-11-10T16:48:59.954Z,94.70
2018-11-10T16:51:29.944Z,94.60
2018-11-10T16:53:59.856Z,94.70
2018-11-10T16:56:29.870Z,94.70
2018-11-10T16:58:59.647Z,94.70
2018-11-10T17:01:29.432Z,94.90
2018-11-10T17:03:59.266Z,94.60
2018-11-10T17:06:29.880Z,94.60
2018-11-10T17:09:00.016Z,94.60
2018-11-10T17:11:29.901Z,94.50
2018-11-10T17:13:59.805Z,94.50
2018-11-10T17:16:29.704Z,94.50
2018-11-10T17:19:00.203Z,94.50
2018-11-10T17:21:30.088Z,94.40
2018-11-10T17:24:00.097Z,94.40
2018-11-10T17:26:30.011Z,94.30
2018-11-10T17:29:00.000Z,94.30
2018-11-10T17:31:29.971Z,94.30
2018-11-10T17:34:00.023Z,94.20
2018-11-10T17:36:29.968Z,94.20
2018-11-10T17:39:00.010Z,94.10
2018-11-10T17:41:31.677Z,94.10
2018-11-10T17:44:01.562Z,94.00
2018-11-10T17:46:31.551Z,94.00
2018-11-10T17:49:01.407Z,94.00
2018-11-10T17:51:31.280Z,93.90
2018-11-10T17:54:01.211Z,93.90
2018-11-10T17:56:31.779Z,93.90
2018-11-10T17:59:01.675Z,93.90
2018-11-10T18:01:31.718Z,93.90
2018-11-10T18:04:01.682Z,93.90
2018-11-10T18:06:31.444Z,93.90
2018-11-10T18:09:01.325Z,93.90
2018-11-10T18:11:31.233Z,94.00
2018-11-10T18:14:01.181Z,93.90
2018-11-10T18:16:31.107Z,93.90
2018-11-10T18:19:01.105Z,93.90
2018-11-10T18:21:30.998Z,93.80
2018-11-10T18:24:01.067Z,93.80
2018-11-10T18:26:31.055Z,93.80
2018-11-10T18:29:01.029Z,93.80
2018-11-10T18:31:31.059Z,93.80
2018-11-10T18:34:00.907Z,93.80
2018-11-10T18:36:30.984Z,93.70
2018-11-10T18:39:01.895Z,93.70
2018-11-10T18:41:32.044Z,93.70
2018-11-10T18:44:01.879Z,93.70
2018-11-10T18:46:31.884Z,93.70
2018-11-10T18:49:01.753Z,93.70
2018-11-10T18:51:31.837Z,93.70
2018-11-10T18:54:04.028Z,93.70
2018-11-10T18:56:33.927Z,93.70
2018-11-10T18:59:03.868Z,93.70
2018-11-10T19:01:33.802Z,93.70
2018-11-10T19:04:03.744Z,93.70
2018-11-10T19:06:33.935Z,93.70
2018-11-10T19:09:04.337Z,93.70
2018-11-10T19:11:34.356Z,93.60
2018-11-10T19:14:04.342Z,93.60
2018-11-10T19:16:34.203Z,93.60
2018-11-10T19:19:04.044Z,93.60
2018-11-10T19:21:34.032Z,93.60
2018-11-10T19:24:03.914Z,93.50
2018-11-10T19:26:33.810Z,93.50
2018-11-10T19:29:03.774Z,93.50
2018-11-10T19:31:33.738Z,93.40
2018-11-10T19:34:03.718Z,93.40
2018-11-10T19:36:33.550Z,93.40
2018-11-10T19:39:03.732Z,93.40
2018-11-10T19:41:35.292Z,93.40
2018-11-10T19:44:05.214Z,93.30
2018-11-10T19:46:35.088Z,93.30
2018-11-10T19:49:04.986Z,93.20
2018-11-10T19:51:35.154Z,93.20
2018-11-10T19:54:04.796Z,93.20
2018-11-10T19:56:35.054Z,93.10
2018-11-10T19:59:04.969Z,93.10
2018-11-10T20:01:34.971Z,93.10
2018-11-10T20:04:05.025Z,93.00
2018-11-10T20:06:34.960Z,93.00
2018-11-10T20:09:07.314Z,93.00
2018-11-10T20:11:37.221Z,92.90
2018-11-10T20:14:07.541Z,92.90
2018-11-10T20:16:37.376Z,93.20
2018-11-10T20:19:07.307Z,92.80
2018-11-10T20:21:37.204Z,92.80
2018-11-10T20:24:07.396Z,92.80
2018-11-10T20:26:37.332Z,92.70
2018-11-10T20:29:07.707Z,92.70
2018-11-10T20:31:37.621Z,92.70
2018-11-10T20:34:07.600Z,93.10
2018-11-10T20:36:37.518Z,92.70
2018-11-10T20:39:09.784Z,92.70
2018-11-10T20:41:40.458Z,92.60
2018-11-10T20:44:10.480Z,92.60
2018-11-10T20:46:40.654Z,92.60
2018-11-10T20:49:10.652Z,92.60
2018-11-10T20:51:40.785Z,92.60
2018-11-10T20:54:10.742Z,92.60
2018-11-10T20:56:40.774Z,92.60
2018-11-10T20:59:10.698Z,92.60
2018-11-10T21:01:40.694Z,92.60
2018-11-10T21:04:10.772Z,92.60
2018-11-10T21:06:40.702Z,92.70
2018-11-10T21:09:12.431Z,92.70
2018-11-10T21:11:42.406Z,92.70
2018-11-10T21:14:12.291Z,92.80
2018-11-10T21:16:42.317Z,92.80
2018-11-10T21:19:12.304Z,92.90
2018-11-10T21:21:42.126Z,92.90
2018-11-10T21:24:12.036Z,92.90
2018-11-10T21:26:42.032Z,92.90
2018-11-10T21:29:11.958Z,92.90
2018-11-10T21:31:41.891Z,92.90
2018-11-10T21:34:11.857Z,92.90
2018-11-10T21:36:43.670Z,92.90
2018-11-10T21:39:13.587Z,92.90
2018-11-10T21:41:43.604Z,92.80
2018-11-10T21:44:13.466Z,92.90
2018-11-10T21:46:43.318Z,92.80
2018-11-10T21:49:13.410Z,92.90
2018-11-10T21:51:43.220Z,92.80
2018-11-10T21:54:13.060Z,92.80
2018-11-10T21:56:42.956Z,92.80
2018-11-10T21:59:12.886Z,92.80
2018-11-10T22:01:42.913Z,92.80
2018-11-10T22:04:13.527Z,92.80
2018-11-10T22:06:43.532Z,93.20
2018-11-10T22:09:13.893Z,92.90
2018-11-10T22:11:44.757Z,93.00
2018-11-10T22:14:14.822Z,93.00
2018-11-10T22:16:44.761Z,93.10
2018-11-10T22:19:15.136Z,93.20
2018-11-10T22:21:44.930Z,93.20
2018-11-10T22:24:14.907Z,93.50
2018-11-10T22:26:44.700Z,93.30
2018-11-10T22:29:14.636Z,93.30
2018-11-10T22:31:44.540Z,93.40
2018-11-10T22:34:14.374Z,93.50
2018-11-10T22:36:44.200Z,93.40
2018-11-10T22:39:14.092Z,93.40
2018-11-10T22:41:43.971Z,93.40
2018-11-10T22:44:13.870Z,93.40
2018-11-10T22:46:43.713Z,93.30
2018-11-10T22:49:14.029Z,93.30
2018-11-10T22:51:43.967Z,93.20
2018-11-10T22:54:13.877Z,93.20
2018-11-10T22:56:43.875Z,93.10
2018-11-10T22:59:13.793Z,93.10
2018-11-10T23:01:43.721Z,93.10
2018-11-10T23:04:13.704Z,93.10
2018-11-10T23:06:43.633Z,93.00
2018-11-10T23:09:13.493Z,93.00
2018-11-10T23:11:43.470Z,93.00
2018-11-10T23:14:13.331Z,92.90
2018-11-10T23:16:43.223Z,92.90
2018-11-10T23:19:13.104Z,92.90
2018-11-10T23:21:42.965Z,92.90
2018-11-10T23:24:12.771Z,92.90
2018-11-10T23:26:42.751Z,92.90
2018-11-10T23:29:12.652Z,92.90
2018-11-10T23:31:42.563Z,92.90
2018-11-10T23:34:12.307Z,92.90
2018-11-10T23:36:42.837Z,92.90
2018-11-10T23:39:13.521Z,92.90
2018-11-10T23:41:43.306Z,92.90
2018-11-10T23:44:13.095Z,92.90
2018-11-10T23:46:43.036Z,92.90
2018-11-10T23:49:12.949Z,92.90
2018-11-10T23:51:42.798Z,93.20
2018-11-10T23:54:12.758Z,92.80
2018-11-10T23:56:42.681Z,92.70
2018-11-10T23:59:12.443Z,92.70
